createdAt,value
2023-01-27T00:01:41.089Z,2.00
2023-01-27T00:04:09.771Z,2.00
2023-01-27T00:06:38.266Z,2.00
2023-01-27T00:09:06.836Z,2.00
2023-01-27T00:11:54.158Z,2.00
2023-01-27T00:14:23.763Z,2.02
2023-01-27T00:16:53.261Z,2.10
2023-01-27T00:19:21.728Z,2.10
2023-01-27T00:22:08.980Z,2.10
2023-01-27T00:24:37.768Z,2.10
2023-01-27T00:27:09.259Z,2.10
2023-01-27T00:29:40.980Z,2.10
2023-01-27T00:32:29.681Z,2.10
2023-01-27T00:34:58.340Z,2.10
2023-01-27T00:37:27.213Z,2.10
2023-01-27T00:39:55.798Z,2.10
2023-01-27T00:42:24.380Z,2.10
2023-01-27T00:45:11.500Z,2.10
2023-01-27T00:47:41.212Z,2.10
2023-01-27T00:50:11.214Z,2.10
2023-01-27T00:52:40.224Z,2.10
2023-01-27T00:55:11.088Z,2.10
2023-01-27T00:57:39.536Z,2.06
2023-01-27T01:00:10.573Z,2.10
2023-01-27T01:02:39.194Z,2.10
2023-01-27T01:05:08.743Z,2.10
2023-01-27T01:07:37.254Z,2.00
2023-01-27T01:10:06.728Z,2.00
2023-01-27T01:12:35.959Z,2.04
2023-01-27T01:15:05.325Z,2.10
2023-01-27T01:17:33.844Z,2.10
2023-01-27T01:20:02.838Z,2.10
2023-01-27T01:22:31.421Z,2.10
2023-01-27T01:25:00.143Z,2.10
2023-01-27T01:27:31.058Z,2.10
2023-01-27T01:30:01.372Z,2.20
2023-01-27T01:32:30.061Z,2.20
2023-01-27T01:34:58.542Z,2.20
2023-01-27T01:37:27.128Z,2.20
2023-01-27T01:39:55.712Z,2.20
2023-01-27T01:42:25.427Z,2.20
2023-01-27T01:45:32.220Z,2.20
2023-01-27T01:48:09.817Z,2.20
2023-01-27T01:50:42.582Z,2.20
2023-01-27T01:53:12.202Z,2.20
2023-01-27T01:55:41.598Z,2.16
2023-01-27T01:58:13.008Z,2.12
2023-01-27T02:00:42.140Z,2.10
2023-01-27T02:03:11.339Z,2.10
2023-01-27T02:05:44.961Z,2.10
2023-01-27T02:08:44.452Z,2.10
2023-01-27T02:11:13.044Z,2.00
2023-01-27T02:13:43.463Z,2.04
2023-01-27T02:16:13.411Z,2.08
2023-01-27T02:18:43.467Z,2.00
2023-01-27T02:21:12.200Z,2.00
2023-01-27T02:23:56.097Z,1.98
2023-01-27T02:26:39.107Z,2.00
2023-01-27T02:29:12.560Z,2.00
2023-01-27T02:31:42.148Z,1.94
2023-01-27T02:34:16.442Z,1.90
2023-01-27T02:37:03.296Z,1.90
2023-01-27T02:39:39.327Z,1.92
2023-01-27T02:42:12.614Z,2.00
2023-01-27T02:44:41.141Z,2.00
2023-01-27T02:47:09.814Z,2.00
2023-01-27T02:49:38.910Z,2.00
2023-01-27T02:52:09.135Z,2.00
2023-01-27T02:54:37.819Z,2.00
2023-01-27T02:57:06.507Z,2.04
2023-01-27T02:59:36.321Z,2.10
2023-01-27T03:02:05.156Z,2.10
2023-01-27T03:04:33.821Z,2.08
2023-01-27T03:07:05.558Z,2.10
2023-01-27T03:09:34.141Z,2.10
2023-01-27T03:12:21.054Z,2.10
2023-01-27T03:15:11.224Z,2.06
2023-01-27T03:17:59.284Z,2.10
2023-01-27T03:20:28.175Z,2.10
2023-01-27T03:22:56.864Z,2.10
2023-01-27T03:25:26.265Z,2.10
2023-01-27T03:27:57.638Z,2.10
2023-01-27T03:31:20.058Z,2.12
2023-01-27T03:33:54.489Z,2.18
2023-01-27T03:36:51.640Z,2.20
2023-01-27T03:39:39.372Z,2.20
2023-01-27T03:42:27.004Z,2.12
2023-01-27T03:45:15.605Z,2.12
2023-01-27T03:47:44.451Z,2.12
2023-01-27T03:50:19.482Z,2.10
2023-01-27T03:53:03.562Z,2.10
2023-01-27T03:55:34.224Z,2.02
2023-01-27T03:58:19.934Z,2.00
2023-01-27T04:00:58.277Z,2.02
2023-01-27T04:03:53.583Z,2.00
2023-01-27T04:06:53.435Z,2.00
2023-01-27T04:09:34.357Z,2.00
2023-01-27T04:12:06.534Z,2.00
2023-01-27T04:14:43.157Z,2.00
2023-01-27T04:17:17.909Z,2.00
2023-01-27T04:19:47.855Z,2.00
2023-01-27T04:22:17.499Z,1.98
2023-01-27T04:24:46.149Z,2.00
2023-01-27T04:27:20.595Z,1.96
2023-01-27T04:29:49.380Z,2.00
2023-01-27T04:32:17.942Z,2.00
2023-01-27T04:34:46.629Z,2.04
2023-01-27T04:37:15.422Z,2.00
2023-01-27T04:39:46.053Z,2.00
2023-01-27T04:42:14.658Z,2.00
2023-01-27T04:44:43.423Z,2.00
2023-01-27T04:47:11.908Z,2.00
2023-01-27T04:49:40.492Z,2.00
2023-01-27T04:52:09.179Z,2.04
2023-01-27T04:54:37.765Z,2.00
2023-01-27T04:57:06.452Z,2.10
2023-01-27T04:59:35.136Z,2.10
2023-01-27T05:02:04.960Z,2.10
2023-01-27T05:04:33.962Z,2.10
2023-01-27T05:07:02.842Z,2.10
2023-01-27T05:09:31.419Z,2.10
2023-01-27T05:12:00.005Z,2.10
2023-01-27T05:14:28.690Z,2.10
2023-01-27T05:16:57.321Z,2.10
2023-01-27T05:19:26.073Z,2.12
2023-01-27T05:21:54.649Z,2.14
2023-01-27T05:24:23.369Z,2.10
2023-01-27T05:26:53.766Z,2.20
2023-01-27T05:29:22.455Z,2.20
2023-01-27T05:31:51.072Z,2.20
2023-01-27T05:34:19.720Z,2.20
2023-01-27T05:36:48.408Z,2.20
2023-01-27T05:39:17.299Z,2.20
2023-01-27T05:41:45.785Z,2.20
2023-01-27T05:44:14.476Z,2.20
2023-01-27T05:46:43.303Z,2.20
2023-01-27T05:49:12.353Z,2.20
2023-01-27T05:51:41.141Z,2.20
2023-01-27T05:54:10.858Z,2.30
2023-01-27T05:56:40.973Z,2.30
2023-01-27T05:59:11.417Z,2.28
2023-01-27T06:01:40.318Z,2.30
2023-01-27T06:04:10.940Z,2.30
2023-01-27T06:06:39.514Z,2.30
2023-01-27T06:09:08.207Z,2.30
2023-01-27T06:11:36.797Z,2.30
2023-01-27T06:14:05.576Z,2.30
2023-01-27T06:16:34.439Z,2.26
2023-01-27T06:19:03.258Z,2.30
2023-01-27T06:21:31.942Z,2.26
2023-01-27T06:24:00.653Z,2.30
2023-01-27T06:26:29.313Z,2.30
2023-01-27T06:28:58.307Z,2.30
2023-01-27T06:31:27.773Z,2.30
2023-01-27T06:33:57.033Z,2.30
2023-01-27T06:36:25.728Z,2.30
2023-01-27T06:38:54.596Z,2.30
2023-01-27T06:41:23.398Z,2.30
2023-01-27T06:43:52.080Z,2.30
2023-01-27T06:46:20.692Z,2.30
2023-01-27T06:48:49.339Z,2.30
2023-01-27T06:51:17.819Z,2.30
2023-01-27T06:53:46.410Z,2.30
2023-01-27T06:56:16.464Z,2.38
2023-01-27T06:58:46.275Z,2.40
2023-01-27T07:01:14.883Z,2.40
2023-01-27T07:03:45.006Z,2.40
2023-01-27T07:06:15.375Z,2.40
2023-01-27T07:08:47.225Z,2.40
2023-01-27T07:11:15.934Z,2.40
2023-01-27T07:13:45.010Z,2.44
2023-01-27T07:16:13.623Z,2.50
2023-01-27T07:18:42.384Z,2.50
2023-01-27T07:21:11.072Z,2.50
2023-01-27T07:23:39.763Z,2.50
2023-01-27T07:26:23.215Z,2.50
2023-01-27T07:28:53.780Z,2.50
2023-01-27T07:31:23.640Z,2.50
2023-01-27T07:33:54.193Z,2.50
2023-01-27T07:36:22.956Z,2.50
2023-01-27T07:38:51.939Z,2.50
2023-01-27T07:41:23.253Z,2.50
2023-01-27T07:43:52.603Z,2.52
2023-01-27T07:46:21.394Z,2.60
2023-01-27T07:48:50.537Z,2.60
2023-01-27T07:51:19.275Z,2.60
2023-01-27T07:53:48.070Z,2.60
2023-01-27T07:56:16.649Z,2.60
2023-01-27T07:58:45.333Z,2.60
2023-01-27T08:01:13.968Z,2.70
2023-01-27T08:03:42.717Z,2.70
2023-01-27T08:06:13.292Z,2.70
2023-01-27T08:08:42.218Z,2.70
2023-01-27T08:11:14.092Z,2.72
2023-01-27T08:13:43.400Z,2.80
2023-01-27T08:16:15.595Z,2.80
2023-01-27T08:18:44.164Z,2.80
2023-01-27T08:21:13.919Z,2.80
2023-01-27T08:23:42.756Z,2.90
2023-01-27T08:26:11.862Z,2.92
2023-01-27T08:28:41.125Z,3.00
2023-01-27T08:31:16.465Z,3.00
2023-01-27T08:33:51.890Z,3.00
2023-01-27T08:36:23.154Z,3.00
2023-01-27T08:38:52.381Z,2.94
2023-01-27T08:41:27.121Z,2.90
2023-01-27T08:43:56.229Z,2.98
2023-01-27T08:46:25.414Z,3.00
2023-01-27T08:48:54.102Z,3.00
2023-01-27T08:51:22.888Z,3.10
2023-01-27T08:53:51.786Z,3.12
2023-01-27T08:56:20.740Z,3.16
2023-01-27T08:58:49.355Z,3.20
2023-01-27T09:01:18.779Z,3.20
2023-01-27T09:03:47.340Z,3.20
2023-01-27T09:06:17.366Z,3.20
2023-01-27T09:09:06.017Z,3.20
2023-01-27T09:11:36.992Z,3.20
2023-01-27T09:14:05.777Z,3.20
2023-01-27T09:16:34.357Z,3.20
2023-01-27T09:19:04.462Z,3.22
2023-01-27T09:21:33.030Z,3.20
2023-01-27T09:24:01.745Z,3.20
2023-01-27T09:26:30.522Z,3.10
2023-01-27T09:28:59.295Z,3.10
2023-01-27T09:31:28.064Z,3.20
2023-01-27T09:33:56.883Z,3.20
2023-01-27T09:36:25.455Z,3.20
2023-01-27T09:39:07.632Z,3.20
2023-01-27T09:41:51.322Z,3.20
2023-01-27T09:44:52.348Z,3.20
2023-01-27T09:47:39.465Z,3.20
2023-01-27T09:50:29.947Z,3.26
2023-01-27T09:53:14.522Z,3.30
2023-01-27T09:56:04.511Z,3.30
2023-01-27T09:58:54.604Z,3.38
2023-01-27T10:01:51.481Z,3.50
2023-01-27T10:04:57.756Z,3.50
2023-01-27T10:08:23.335Z,3.50
2023-01-27T10:11:16.808Z,3.58
2023-01-27T10:14:16.926Z,3.62
2023-01-27T10:17:00.773Z,3.60
2023-01-27T10:20:03.349Z,3.70
2023-01-27T10:23:09.525Z,3.70
2023-01-27T10:25:53.056Z,3.70
2023-01-27T10:28:29.051Z,3.74
2023-01-27T10:31:30.507Z,3.80
2023-01-27T10:34:14.510Z,3.80
2023-01-27T10:36:48.860Z,3.80
2023-01-27T10:39:44.449Z,3.80
2023-01-27T10:42:52.867Z,3.80
2023-01-27T10:45:58.877Z,3.80
2023-01-27T10:48:51.373Z,3.80
2023-01-27T10:51:31.324Z,3.80
2023-01-27T10:54:39.440Z,3.80
2023-01-27T10:57:29.731Z,3.80
2023-01-27T11:00:51.740Z,3.80
2023-01-27T11:03:33.571Z,3.80
2023-01-27T11:06:09.190Z,3.80
2023-01-27T11:08:42.202Z,3.80
2023-01-27T11:11:29.422Z,3.74
2023-01-27T11:14:09.467Z,3.80
2023-01-27T11:16:43.269Z,3.80
2023-01-27T11:19:26.815Z,3.80
2023-01-27T11:22:07.045Z,3.80
2023-01-27T11:24:47.457Z,3.80
2023-01-27T11:27:58.112Z,3.90
2023-01-27T11:30:42.987Z,3.90
2023-01-27T11:33:28.659Z,3.90
2023-01-27T11:35:57.375Z,3.90
2023-01-27T11:38:26.163Z,3.90
2023-01-27T11:40:55.235Z,3.90
2023-01-27T11:43:27.032Z,3.90
2023-01-27T11:46:08.293Z,3.90
2023-01-27T11:48:52.831Z,3.90
2023-01-27T11:51:29.234Z,3.90
2023-01-27T11:54:37.205Z,4.00
2023-01-27T11:57:05.790Z,4.00
2023-01-27T11:59:41.348Z,4.02
2023-01-27T12:02:09.831Z,4.10
2023-01-27T12:05:09.753Z,4.14
2023-01-27T12:07:52.865Z,4.20
2023-01-27T12:10:33.578Z,4.30
2023-01-27T12:13:25.487Z,4.30
2023-01-27T12:16:05.639Z,4.40
2023-01-27T12:18:36.315Z,4.40
2023-01-27T12:21:09.141Z,4.40
2023-01-27T12:23:47.635Z,4.42
2023-01-27T12:26:16.651Z,4.42
2023-01-27T12:28:55.380Z,4.50
2023-01-27T12:31:31.277Z,4.50
2023-01-27T12:34:08.728Z,4.60
2023-01-27T12:36:43.578Z,4.60
2023-01-27T12:39:50.383Z,4.70
2023-01-27T12:42:38.583Z,4.70
2023-01-27T12:45:40.246Z,4.70
2023-01-27T12:48:19.067Z,4.70
2023-01-27T12:50:50.347Z,4.70
2023-01-27T12:53:27.964Z,4.70
2023-01-27T12:56:07.562Z,4.78
2023-01-27T12:59:00.095Z,4.76
2023-01-27T13:01:36.597Z,4.76
2023-01-27T13:04:22.150Z,4.70
2023-01-27T13:07:03.056Z,4.70
2023-01-27T13:09:58.015Z,4.70
2023-01-27T13:12:56.202Z,4.70
2023-01-27T13:15:28.985Z,4.70
2023-01-27T13:18:14.014Z,4.70
2023-01-27T13:20:51.454Z,4.70
2023-01-27T13:23:25.208Z,4.70
2023-01-27T13:26:09.237Z,4.70
2023-01-27T13:28:56.324Z,4.68
2023-01-27T13:31:49.941Z,4.60
2023-01-27T13:34:41.719Z,4.60
2023-01-27T13:37:43.889Z,4.60
2023-01-27T13:40:29.991Z,4.60
2023-01-27T13:43:42.805Z,4.60
2023-01-27T13:46:30.919Z,4.60
2023-01-27T13:49:10.694Z,4.56
2023-01-27T13:51:39.655Z,4.50
2023-01-27T13:54:15.804Z,4.50
2023-01-27T13:57:28.474Z,4.50
2023-01-27T14:00:33.920Z,4.50
2023-01-27T14:03:40.513Z,4.50
2023-01-27T14:06:41.655Z,4.48
2023-01-27T14:09:53.437Z,4.46
2023-01-27T14:13:19.162Z,4.48
2023-01-27T14:16:02.658Z,4.46
2023-01-27T14:18:38.454Z,4.48
2023-01-27T14:21:44.599Z,4.40
2023-01-27T14:25:02.574Z,4.40
2023-01-27T14:27:43.230Z,4.40
2023-01-27T14:30:32.353Z,4.40
2023-01-27T14:33:22.583Z,4.40
2023-01-27T14:36:27.545Z,4.30
2023-01-27T14:39:42.702Z,4.30
2023-01-27T14:42:24.925Z,4.30
2023-01-27T14:45:47.760Z,4.30
2023-01-27T14:48:52.197Z,4.30
2023-01-27T14:51:42.685Z,4.22
2023-01-27T14:54:45.774Z,4.20
2023-01-27T14:57:48.259Z,4.20
2023-01-27T15:00:43.328Z,4.20
2023-01-27T15:03:47.693Z,4.20
2023-01-27T15:06:56.502Z,4.20
2023-01-27T15:09:54.999Z,4.20
2023-01-27T15:12:44.477Z,4.20
2023-01-27T15:15:38.454Z,4.20
2023-01-27T15:18:16.765Z,4.20
2023-01-27T15:21:05.728Z,4.20
2023-01-27T15:23:40.703Z,4.20
2023-01-27T15:26:11.146Z,4.20
2023-01-27T15:28:43.832Z,4.20
2023-01-27T15:31:15.567Z,4.18
2023-01-27T15:33:56.777Z,4.10
2023-01-27T15:36:28.398Z,4.10
2023-01-27T15:39:09.352Z,4.10
2023-01-27T15:41:39.155Z,4.10
2023-01-27T15:44:19.558Z,4.10
2023-01-27T15:46:56.246Z,4.10
2023-01-27T15:49:40.846Z,4.06
2023-01-27T15:52:22.242Z,4.06
2023-01-27T15:54:53.992Z,4.02
2023-01-27T15:57:34.053Z,4.00
2023-01-27T16:00:16.965Z,4.00
2023-01-27T16:02:50.987Z,4.00
2023-01-27T16:05:46.085Z,4.00
2023-01-27T16:08:16.698Z,4.00
2023-01-27T16:10:46.127Z,4.00
2023-01-27T16:13:28.841Z,4.00
2023-01-27T16:16:19.597Z,4.00
2023-01-27T16:18:59.897Z,4.00
2023-01-27T16:21:54.192Z,4.00
2023-01-27T16:24:36.187Z,3.90
2023-01-27T16:27:16.953Z,3.90
2023-01-27T16:29:48.990Z,3.90
2023-01-27T16:32:21.702Z,3.90
2023-01-27T16:34:59.612Z,3.90
2023-01-27T16:37:36.280Z,3.90
2023-01-27T16:40:24.345Z,3.90
2023-01-27T16:42:52.915Z,3.86
2023-01-27T16:45:30.390Z,3.80
2023-01-27T16:48:12.707Z,3.80
2023-01-27T16:50:44.558Z,3.80
2023-01-27T16:53:23.259Z,3.80
2023-01-27T16:56:19.729Z,3.80
2023-01-27T16:58:51.017Z,3.80
2023-01-27T17:01:34.972Z,3.80
2023-01-27T17:04:18.010Z,3.80
2023-01-27T17:06:54.087Z,3.80
2023-01-27T17:09:28.510Z,3.80
2023-01-27T17:11:57.749Z,3.80
2023-01-27T17:14:36.435Z,3.80
2023-01-27T17:17:18.081Z,3.80
2023-01-27T17:19:54.568Z,3.80
2023-01-27T17:22:31.194Z,3.80
2023-01-27T17:25:11.316Z,3.80
2023-01-27T17:27:43.194Z,3.80
2023-01-27T17:30:14.828Z,3.80
2023-01-27T17:32:48.357Z,3.80
2023-01-27T17:35:24.765Z,3.80
2023-01-27T17:38:24.555Z,3.82
2023-01-27T17:40:55.087Z,3.90
2023-01-27T17:43:33.587Z,3.90
2023-01-27T17:46:05.208Z,3.86
2023-01-27T17:48:38.838Z,3.82
2023-01-27T17:51:12.999Z,3.80
2023-01-27T17:53:43.450Z,3.90
2023-01-27T17:56:32.916Z,3.86
2023-01-27T17:59:11.916Z,3.80
2023-01-27T18:01:41.061Z,3.80
2023-01-27T18:04:10.769Z,3.80
2023-01-27T18:06:42.722Z,3.80
2023-01-27T18:09:28.142Z,3.80
2023-01-27T18:12:05.459Z,3.80
2023-01-27T18:14:37.292Z,3.80
2023-01-27T18:17:24.143Z,3.80
2023-01-27T18:19:56.413Z,3.80
2023-01-27T18:22:26.586Z,3.80
2023-01-27T18:25:01.676Z,3.74
2023-01-27T18:27:37.072Z,3.70
2023-01-27T18:30:19.319Z,3.70
2023-01-27T18:32:59.900Z,3.68
2023-01-27T18:35:32.844Z,3.62
2023-01-27T18:38:18.927Z,3.60
2023-01-27T18:40:48.659Z,3.68
2023-01-27T18:43:17.528Z,3.70
2023-01-27T18:45:47.751Z,3.70
2023-01-27T18:48:17.728Z,3.64
2023-01-27T18:50:47.628Z,3.60
2023-01-27T18:53:19.519Z,3.60
2023-01-27T18:55:48.235Z,3.60
2023-01-27T18:58:18.179Z,3.58
2023-01-27T19:00:50.675Z,3.50
2023-01-27T19:03:23.923Z,3.50
2023-01-27T19:05:54.141Z,3.50
2023-01-27T19:08:25.408Z,3.50
2023-01-27T19:10:53.973Z,3.48
2023-01-27T19:13:23.908Z,3.50
2023-01-27T19:15:57.515Z,3.40
2023-01-27T19:18:34.160Z,3.42
2023-01-27T19:21:03.500Z,3.40
2023-01-27T19:23:32.951Z,3.38
2023-01-27T19:26:05.364Z,3.30
2023-01-27T19:28:38.214Z,3.30
2023-01-27T19:31:08.407Z,3.30
2023-01-27T19:33:42.160Z,3.20
2023-01-27T19:36:46.274Z,3.16
2023-01-27T19:39:17.836Z,3.10
2023-01-27T19:41:47.233Z,3.10
2023-01-27T19:44:16.399Z,3.00
2023-01-27T19:46:45.224Z,3.00
2023-01-27T19:49:18.372Z,2.90
2023-01-27T19:51:47.565Z,2.80
2023-01-27T19:54:17.333Z,2.80
2023-01-27T19:56:46.423Z,2.80
2023-01-27T19:59:15.006Z,2.78
2023-01-27T20:01:44.529Z,2.70
2023-01-27T20:04:13.430Z,2.70
2023-01-27T20:06:42.199Z,2.70
2023-01-27T20:09:11.444Z,2.60
2023-01-27T20:11:44.632Z,2.54
2023-01-27T20:14:19.529Z,2.50
2023-01-27T20:16:48.893Z,2.50
2023-01-27T20:19:17.713Z,2.40
2023-01-27T20:21:47.273Z,2.40
2023-01-27T20:24:19.970Z,2.40
2023-01-27T20:26:49.094Z,2.40
2023-01-27T20:29:17.681Z,2.30
2023-01-27T20:31:47.171Z,2.30
2023-01-27T20:34:16.413Z,2.30
2023-01-27T20:36:44.964Z,2.28
2023-01-27T20:39:13.562Z,2.20
2023-01-27T20:41:43.438Z,2.20
2023-01-27T20:44:12.872Z,2.14
2023-01-27T20:46:41.457Z,2.10
2023-01-27T20:49:10.151Z,2.10
2023-01-27T20:51:39.343Z,2.10
2023-01-27T20:54:08.142Z,2.00
2023-01-27T20:56:36.817Z,2.00
2023-01-27T20:59:05.504Z,2.00
2023-01-27T21:01:35.756Z,2.00
2023-01-27T21:04:04.416Z,1.94
2023-01-27T21:06:33.001Z,1.90
2023-01-27T21:09:03.330Z,1.90
2023-01-27T21:11:33.292Z,1.90
2023-01-27T21:14:03.055Z,1.80
2023-01-27T21:16:32.386Z,1.80
2023-01-27T21:19:02.773Z,1.70
2023-01-27T21:21:32.797Z,1.70
2023-01-27T21:24:01.839Z,1.70
2023-01-27T21:26:33.908Z,1.70
2023-01-27T21:29:05.908Z,1.60
2023-01-27T21:31:34.776Z,1.60
2023-01-27T21:34:05.830Z,1.60
2023-01-27T21:36:35.684Z,1.52
2023-01-27T21:39:06.111Z,1.50
2023-01-27T21:41:54.259Z,1.50
2023-01-27T21:44:45.454Z,1.44
2023-01-27T21:47:21.223Z,1.40
2023-01-27T21:50:04.957Z,1.40
2023-01-27T21:52:43.267Z,1.40
2023-01-27T21:55:23.928Z,1.40
2023-01-27T21:57:56.816Z,1.30
2023-01-27T22:00:29.916Z,1.30
2023-01-27T22:03:03.818Z,1.28
2023-01-27T22:05:35.935Z,1.20
2023-01-27T22:08:07.040Z,1.20
2023-01-27T22:10:36.222Z,1.20
2023-01-27T22:13:05.252Z,1.10
2023-01-27T22:15:34.924Z,1.10
2023-01-27T22:18:04.915Z,1.10
2023-01-27T22:20:34.557Z,1.10
2023-01-27T22:23:03.350Z,1.00
2023-01-27T22:25:33.674Z,1.00
2023-01-27T22:28:02.473Z,1.00
2023-01-27T22:30:33.379Z,1.00
2023-01-27T22:33:02.902Z,0.90
2023-01-27T22:35:32.002Z,0.90
2023-01-27T22:38:03.127Z,0.88
2023-01-27T22:40:32.239Z,0.80
2023-01-27T22:43:01.310Z,0.80
2023-01-27T22:45:32.129Z,0.80
2023-01-27T22:48:03.462Z,0.80
2023-01-27T22:50:32.623Z,0.80
2023-01-27T22:53:01.306Z,0.80
2023-01-27T22:55:32.324Z,0.80
2023-01-27T22:58:03.265Z,0.90
2023-01-27T23:00:32.179Z,0.90
2023-01-27T23:03:02.826Z,0.90
2023-01-27T23:05:31.702Z,0.88
2023-01-27T23:08:01.955Z,0.80
2023-01-27T23:10:30.629Z,0.80
2023-01-27T23:12:59.201Z,0.80
2023-01-27T23:15:28.400Z,0.78
2023-01-27T23:17:57.389Z,0.80
2023-01-27T23:20:26.180Z,0.80
2023-01-27T23:22:56.042Z,0.80
2023-01-27T23:25:27.855Z,0.80
2023-01-27T23:27:57.580Z,0.80
2023-01-27T23:30:27.102Z,0.80
2023-01-27T23:32:56.774Z,0.80
2023-01-27T23:35:25.987Z,0.78
2023-01-27T23:37:54.768Z,0.80
2023-01-27T23:40:23.769Z,0.70
2023-01-27T23:42:54.970Z,0.70
2023-01-27T23:45:25.990Z,0.70
2023-01-27T23:47:55.352Z,0.70
2023-01-27T23:50:24.770Z,0.68
2023-01-27T23:52:53.242Z,0.60
2023-01-27T23:55:22.438Z,0.60
2023-01-27T23:57:50.919Z,0.60
